sensor_id;sensor_type;location;lat;lon;timestamp;pressure;altitude;pressure_sealevel;temperature;humidity
28921;BME280;16035;53.594;9.952;2024-02-21T00:00:56;101702.25;;;10.03;75.87
28921;BME280;16035;53.594;9.952;2024-02-21T00:02:57;101703.56;;;10.01;75.68
28921;BME280;16035;53.594;9.952;2024-02-21T00:04:59;101692.69;;;10.01;76.25
28921;BME280;16035;53.594;9.952;2024-02-21T00:06:59;101696.81;;;10.03;75.98
28921;BME280;16035;53.594;9.952;2024-02-21T00:09:00;101692.69;;;10.01;75.80
28921;BME280;16035;53.594;9.952;2024-02-21T00:11:00;101687.47;;;9.99;76.05
28921;BME280;16035;53.594;9.952;2024-02-21T00:13:01;101691.03;;;10.00;75.92
28921;BME280;16035;53.594;9.952;2024-02-21T00:15:01;101689.00;;;9.95;76.31
28921;BME280;16035;53.594;9.952;2024-02-21T00:17:02;101687.34;;;9.94;75.73
28921;BME280;16035;53.594;9.952;2024-02-21T00:19:02;101680.53;;;9.92;75.89
28921;BME280;16035;53.594;9.952;2024-02-21T00:21:02;101675.91;;;9.92;76.23
28921;BME280;16035;53.594;9.952;2024-02-21T00:23:03;101670.50;;;9.92;76.27
28921;BME280;16035;53.594;9.952;2024-02-21T00:25:03;101675.31;;;9.90;76.62
28921;BME280;16035;53.594;9.952;2024-02-21T00:27:04;101666.13;;;9.91;76.51
28921;BME280;16035;53.594;9.952;2024-02-21T00:29:04;101658.09;;;9.96;76.21
28921;BME280;16035;53.594;9.952;2024-02-21T00:31:05;101660.31;;;9.99;76.24
28921;BME280;16035;53.594;9.952;2024-02-21T00:33:05;101655.38;;;9.96;76.46
28921;BME280;16035;53.594;9.952;2024-02-21T00:35:06;101653.13;;;9.93;76.56
28921;BME280;16035;53.594;9.952;2024-02-21T00:37:06;101646.50;;;9.89;76.50
28921;BME280;16035;53.594;9.952;2024-02-21T00:39:07;101650.75;;;9.85;76.86
28921;BME280;16035;53.594;9.952;2024-02-21T00:41:07;101644.03;;;9.87;76.72
28921;BME280;16035;53.594;9.952;2024-02-21T00:43:07;101641.53;;;9.86;76.28
28921;BME280;16035;53.594;9.952;2024-02-21T00:45:08;101629.84;;;9.85;76.70
28921;BME280;16035;53.594;9.952;2024-02-21T00:47:10;101635.88;;;9.87;76.66
28921;BME280;16035;53.594;9.952;2024-02-21T00:49:10;101637.78;;;9.87;76.82
28921;BME280;16035;53.594;9.952;2024-02-21T00:51:10;101638.38;;;9.89;76.51
28921;BME280;16035;53.594;9.952;2024-02-21T00:53:11;101644.03;;;9.87;77.00
28921;BME280;16035;53.594;9.952;2024-02-21T00:55:11;101632.81;;;9.84;76.59
28921;BME280;16035;53.594;9.952;2024-02-21T00:57:11;101636.94;;;9.86;77.26
28921;BME280;16035;53.594;9.952;2024-02-21T00:59:12;101641.69;;;9.91;76.66
28921;BME280;16035;53.594;9.952;2024-02-21T01:01:12;101631.97;;;9.95;76.27
28921;BME280;16035;53.594;9.952;2024-02-21T01:03:13;101629.88;;;9.97;76.80
28921;BME280;16035;53.594;9.952;2024-02-21T01:05:13;101629.28;;;9.95;76.91
28921;BME280;16035;53.594;9.952;2024-02-21T01:07:14;101618.06;;;9.92;76.66
28921;BME280;16035;53.594;9.952;2024-02-21T01:09:14;101619.13;;;9.91;77.15
28921;BME280;16035;53.594;9.952;2024-02-21T01:11:15;101618.41;;;9.95;76.79
28921;BME280;16035;53.594;9.952;2024-02-21T01:13:16;101611.94;;;9.96;76.69
28921;BME280;16035;53.594;9.952;2024-02-21T01:15:16;101591.03;;;9.97;76.91
28921;BME280;16035;53.594;9.952;2024-02-21T01:17:16;101604.25;;;9.93;76.60
28921;BME280;16035;53.594;9.952;2024-02-21T01:19:17;101609.09;;;9.91;76.88
28921;BME280;16035;53.594;9.952;2024-02-21T01:21:17;101596.00;;;9.88;77.11
28921;BME280;16035;53.594;9.952;2024-02-21T01:23:17;101605.44;;;9.97;76.64
28921;BME280;16035;53.594;9.952;2024-02-21T01:25:18;101607.09;;;9.98;77.36
28921;BME280;16035;53.594;9.952;2024-02-21T01:27:18;101596.47;;;9.97;77.28
28921;BME280;16035;53.594;9.952;2024-02-21T01:29:18;101599.41;;;9.95;77.39
28921;BME280;16035;53.594;9.952;2024-02-21T01:31:19;101603.78;;;9.96;77.72
28921;BME280;16035;53.594;9.952;2024-02-21T01:33:19;101605.91;;;9.94;77.04
28921;BME280;16035;53.594;9.952;2024-02-21T01:35:19;101596.94;;;9.94;77.71
28921;BME280;16035;53.594;9.952;2024-02-21T01:37:20;101585.13;;;9.88;77.62
28921;BME280;16035;53.594;9.952;2024-02-21T01:39:20;101583.25;;;9.88;77.95
28921;BME280;16035;53.594;9.952;2024-02-21T01:41:20;101573.34;;;9.82;77.95
28921;BME280;16035;53.594;9.952;2024-02-21T01:43:21;101571.44;;;9.83;78.11
28921;BME280;16035;53.594;9.952;2024-02-21T01:45:21;101573.19;;;9.89;77.54
28921;BME280;16035;53.594;9.952;2024-02-21T01:47:21;101568.38;;;9.91;77.67
28921;BME280;16035;53.594;9.952;2024-02-21T01:49:22;101569.91;;;9.87;78.40
28921;BME280;16035;53.594;9.952;2024-02-21T01:51:23;101561.41;;;9.83;78.23
28921;BME280;16035;53.594;9.952;2024-02-21T01:53:30;101559.88;;;9.76;78.32
28921;BME280;16035;53.594;9.952;2024-02-21T01:55:31;101550.31;;;9.73;78.68
28921;BME280;16035;53.594;9.952;2024-02-21T01:57:32;101556.56;;;9.74;78.96
28921;BME280;16035;53.594;9.952;2024-02-21T01:59:32;101551.13;;;9.74;78.89
28921;BME280;16035;53.594;9.952;2024-02-21T02:01:32;101547.94;;;9.65;79.16
28921;BME280;16035;53.594;9.952;2024-02-21T02:03:33;101533.19;;;9.61;79.41
28921;BME280;16035;53.594;9.952;2024-02-21T02:05:34;101526.13;;;9.60;79.34
28921;BME280;16035;53.594;9.952;2024-02-21T02:07:35;101525.66;;;9.51;79.96
28921;BME280;16035;53.594;9.952;2024-02-21T02:09:35;101525.28;;;9.59;80.20
28921;BME280;16035;53.594;9.952;2024-02-21T02:11:35;101510.06;;;9.58;80.07
28921;BME280;16035;53.594;9.952;2024-02-21T02:13:36;101516.09;;;9.60;79.83
28921;BME280;16035;53.594;9.952;2024-02-21T02:17:43;101483.28;;;9.62;79.83
28921;BME280;16035;53.594;9.952;2024-02-21T02:19:43;101474.56;;;9.60;80.01
28921;BME280;16035;53.594;9.952;2024-02-21T02:21:49;101445.75;;;9.59;80.54
28921;BME280;16035;53.594;9.952;2024-02-21T02:23:56;101437.97;;;9.62;79.88
28921;BME280;16035;53.594;9.952;2024-02-21T02:25:57;101422.75;;;9.61;80.00
28921;BME280;16035;53.594;9.952;2024-02-21T02:27:57;101400.34;;;9.54;80.62
28921;BME280;16035;53.594;9.952;2024-02-21T02:29:58;101391.84;;;9.51;80.53
28921;BME280;16035;53.594;9.952;2024-02-21T02:31:58;101383.69;;;9.51;80.61
28921;BME280;16035;53.594;9.952;2024-02-21T02:33:58;101367.91;;;9.48;81.25
28921;BME280;16035;53.594;9.952;2024-02-21T02:35:59;101371.81;;;9.40;81.32
28921;BME280;16035;53.594;9.952;2024-02-21T02:37:59;101373.59;;;9.34;81.40
28921;BME280;16035;53.594;9.952;2024-02-21T02:39:59;101385.72;;;9.32;81.28
28921;BME280;16035;53.594;9.952;2024-02-21T02:42:00;101400.25;;;9.38;81.36
28921;BME280;16035;53.594;9.952;2024-02-21T02:44:00;101407.19;;;9.45;80.82
28921;BME280;16035;53.594;9.952;2024-02-21T02:46:00;101416.03;;;9.52;80.28
28921;BME280;16035;53.594;9.952;2024-02-21T02:48:01;101427.81;;;9.58;80.99
28921;BME280;16035;53.594;9.952;2024-02-21T02:50:02;101426.03;;;9.63;80.93
28921;BME280;16035;53.594;9.952;2024-02-21T02:52:02;101424.50;;;9.68;80.07
28921;BME280;16035;53.594;9.952;2024-02-21T02:54:03;101417.91;;;9.75;80.39
28921;BME280;16035;53.594;9.952;2024-02-21T02:56:03;101418.25;;;9.79;79.88
28921;BME280;16035;53.594;9.952;2024-02-21T02:58:04;101429.56;;;9.76;80.21
28921;BME280;16035;53.594;9.952;2024-02-21T03:00:05;101433.09;;;9.76;80.49
28921;BME280;16035;53.594;9.952;2024-02-21T03:02:07;101440.44;;;9.76;80.68
28921;BME280;16035;53.594;9.952;2024-02-21T03:04:07;101444.22;;;9.75;80.78
28921;BME280;16035;53.594;9.952;2024-02-21T03:06:07;101445.84;;;9.76;80.53
28921;BME280;16035;53.594;9.952;2024-02-21T03:08:08;101460.59;;;9.80;80.17
28921;BME280;16035;53.594;9.952;2024-02-21T03:10:09;101458.25;;;9.83;80.43
28921;BME280;16035;53.594;9.952;2024-02-21T03:12:09;101454.47;;;9.84;79.91
28921;BME280;16035;53.594;9.952;2024-02-21T03:14:10;101451.41;;;9.81;80.17
28921;BME280;16035;53.594;9.952;2024-02-21T03:16:10;101460.34;;;9.81;80.46
28921;BME280;16035;53.594;9.952;2024-02-21T03:18:11;101465.06;;;9.86;80.49
28921;BME280;16035;53.594;9.952;2024-02-21T03:20:11;101457.19;;;9.84;80.24
28921;BME280;16035;53.594;9.952;2024-02-21T03:22:12;101451.66;;;9.79;79.91
28921;BME280;16035;53.594;9.952;2024-02-21T03:24:12;101453.53;;;9.79;80.09
28921;BME280;16035;53.594;9.952;2024-02-21T03:26:12;101456.34;;;9.84;80.05
28921;BME280;16035;53.594;9.952;2024-02-21T03:28:17;101459.66;;;9.86;80.02
28921;BME280;16035;53.594;9.952;2024-02-21T03:30:17;101458.09;;;9.90;80.15
28921;BME280;16035;53.594;9.952;2024-02-21T03:32:18;101459.88;;;9.96;80.07
28921;BME280;16035;53.594;9.952;2024-02-21T03:34:18;101454.66;;;9.95;80.10
28921;BME280;16035;53.594;9.952;2024-02-21T03:36:18;101462.97;;;9.88;79.87
28921;BME280;16035;53.594;9.952;2024-02-21T03:38:19;101449.97;;;9.90;80.03
28921;BME280;16035;53.594;9.952;2024-02-21T03:40:19;101449.75;;;9.92;80.22
28921;BME280;16035;53.594;9.952;2024-02-21T03:42:19;101456.34;;;9.96;80.22
28921;BME280;16035;53.594;9.952;2024-02-21T03:44:20;101453.84;;;9.94;79.83
28921;BME280;16035;53.594;9.952;2024-02-21T03:46:20;101445.13;;;9.92;79.88
28921;BME280;16035;53.594;9.952;2024-02-21T03:48:20;101452.31;;;9.98;79.87
28921;BME280;16035;53.594;9.952;2024-02-21T03:50:20;101450.66;;;9.97;79.37
28921;BME280;16035;53.594;9.952;2024-02-21T03:52:21;101450.06;;;9.95;79.70
28921;BME280;16035;53.594;9.952;2024-02-21T03:54:21;101453.94;;;9.99;79.94
28921;BME280;16035;53.594;9.952;2024-02-21T03:56:21;101453.38;;;9.97;79.75
28921;BME280;16035;53.594;9.952;2024-02-21T03:58:22;101446.31;;;9.96;79.76
28921;BME280;16035;53.594;9.952;2024-02-21T04:00:23;101448.19;;;9.96;80.06
28921;BME280;16035;53.594;9.952;2024-02-21T04:02:23;101445.13;;;9.92;80.32
28921;BME280;16035;53.594;9.952;2024-02-21T04:04:24;101446.19;;;9.91;79.96
28921;BME280;16035;53.594;9.952;2024-02-21T04:06:24;101435.22;;;9.86;79.69
28921;BME280;16035;53.594;9.952;2024-02-21T04:08:24;101431.91;;;9.84;80.18
28921;BME280;16035;53.594;9.952;2024-02-21T04:10:25;101433.00;;;9.83;79.95
28921;BME280;16035;53.594;9.952;2024-02-21T04:12:25;101443.25;;;9.81;80.29
28921;BME280;16035;53.594;9.952;2024-02-21T04:14:25;101434.28;;;9.80;80.69
28921;BME280;16035;53.594;9.952;2024-02-21T04:16:26;101431.31;;;9.82;80.72
28921;BME280;16035;53.594;9.952;2024-02-21T04:18:26;101432.88;;;9.78;80.92
28921;BME280;16035;53.594;9.952;2024-02-21T04:20:26;101431.72;;;9.74;80.71
28921;BME280;16035;53.594;9.952;2024-02-21T04:22:27;101425.94;;;9.70;81.18
28921;BME280;16035;53.594;9.952;2024-02-21T04:24:27;101424.75;;;9.66;81.51
28921;BME280;16035;53.594;9.952;2024-02-21T04:26:27;101416.00;;;9.64;81.64
28921;BME280;16035;53.594;9.952;2024-02-21T04:28:28;101417.91;;;9.63;81.26
28921;BME280;16035;53.594;9.952;2024-02-21T04:30:28;101418.72;;;9.64;81.51
28921;BME280;16035;53.594;9.952;2024-02-21T04:32:29;101405.66;;;9.61;81.00
28921;BME280;16035;53.594;9.952;2024-02-21T04:34:29;101412.25;;;9.65;81.66
28921;BME280;16035;53.594;9.952;2024-02-21T04:36:30;101409.66;;;9.70;81.60
28921;BME280;16035;53.594;9.952;2024-02-21T04:38:30;101414.25;;;9.70;81.64
28921;BME280;16035;53.594;9.952;2024-02-21T04:40:30;101408.81;;;9.70;81.32
28921;BME280;16035;53.594;9.952;2024-02-21T04:42:31;101417.06;;;9.75;81.35
28921;BME280;16035;53.594;9.952;2024-02-21T04:44:31;101416.72;;;9.71;81.60
28921;BME280;16035;53.594;9.952;2024-02-21T04:46:31;101414.72;;;9.67;81.57
28921;BME280;16035;53.594;9.952;2024-02-21T04:48:32;101413.66;;;9.68;80.97
28921;BME280;16035;53.594;9.952;2024-02-21T04:50:32;101410.94;;;9.68;81.91
28921;BME280;16035;53.594;9.952;2024-02-21T04:52:33;101412.81;;;9.67;82.02
28921;BME280;16035;53.594;9.952;2024-02-21T04:54:33;101408.56;;;9.71;81.35
28921;BME280;16035;53.594;9.952;2024-02-21T04:56:35;101413.06;;;9.66;81.99
28921;BME280;16035;53.594;9.952;2024-02-21T04:58:39;101410.38;;;9.66;81.39
28921;BME280;16035;53.594;9.952;2024-02-21T05:00:39;101409.75;;;9.63;81.59
28921;BME280;16035;53.594;9.952;2024-02-21T05:02:40;101406.59;;;9.67;82.13
28921;BME280;16035;53.594;9.952;2024-02-21T05:04:42;101410.13;;;9.67;82.13
28921;BME280;16035;53.594;9.952;2024-02-21T05:06:43;101398.09;;;9.63;82.57
28921;BME280;16035;53.594;9.952;2024-02-21T05:08:43;101406.94;;;9.58;82.49
28921;BME280;16035;53.594;9.952;2024-02-21T05:10:43;101400.22;;;9.61;81.93
28921;BME280;16035;53.594;9.952;2024-02-21T05:12:44;101399.88;;;9.69;82.41
28921;BME280;16035;53.594;9.952;2024-02-21T05:14:44;101391.94;;;9.68;81.73
28921;BME280;16035;53.594;9.952;2024-02-21T05:16:44;101383.22;;;9.66;82.24
28921;BME280;16035;53.594;9.952;2024-02-21T05:18:45;101387.22;;;9.63;82.58
28921;BME280;16035;53.594;9.952;2024-02-21T05:20:45;101386.31;;;9.57;82.52
28921;BME280;16035;53.594;9.952;2024-02-21T05:22:45;101383.22;;;9.54;82.35
28921;BME280;16035;53.594;9.952;2024-02-21T05:24:46;101381.94;;;9.56;82.99
28921;BME280;16035;53.594;9.952;2024-02-21T05:26:46;101389.00;;;9.57;82.99
28921;BME280;16035;53.594;9.952;2024-02-21T05:28:46;101395.50;;;9.56;82.83
28921;BME280;16035;53.594;9.952;2024-02-21T05:30:47;101390.66;;;9.58;82.28
28921;BME280;16035;53.594;9.952;2024-02-21T05:32:47;101391.25;;;9.60;83.21
28921;BME280;16035;53.594;9.952;2024-02-21T05:34:50;101392.81;;;9.56;82.72
28921;BME280;16035;53.594;9.952;2024-02-21T05:36:51;101386.41;;;9.62;83.35
28921;BME280;16035;53.594;9.952;2024-02-21T05:38:52;101387.72;;;9.60;83.01
28921;BME280;16035;53.594;9.952;2024-02-21T05:40:52;101383.59;;;9.57;82.72
28921;BME280;16035;53.594;9.952;2024-02-21T05:42:53;101380.88;;;9.57;82.92
28921;BME280;16035;53.594;9.952;2024-02-21T05:44:53;101382.88;;;9.50;83.34
28921;BME280;16035;53.594;9.952;2024-02-21T05:46:53;101376.63;;;9.50;83.32
28921;BME280;16035;53.594;9.952;2024-02-21T05:48:54;101383.69;;;9.51;83.51
28921;BME280;16035;53.594;9.952;2024-02-21T05:50:54;101378.53;;;9.49;84.08
28921;BME280;16035;53.594;9.952;2024-02-21T05:52:55;101390.66;;;9.58;83.72
28921;BME280;16035;53.594;9.952;2024-02-21T05:54:56;101381.81;;;9.63;83.28
28921;BME280;16035;53.594;9.952;2024-02-21T05:56:56;101384.88;;;9.67;82.86
28921;BME280;16035;53.594;9.952;2024-02-21T05:58:57;101392.53;;;9.70;83.09
28921;BME280;16035;53.594;9.952;2024-02-21T06:00:57;101389.94;;;9.75;82.99
28921;BME280;16035;53.594;9.952;2024-02-21T06:02:58;101387.47;;;9.73;83.30
28921;BME280;16035;53.594;9.952;2024-02-21T06:04:58;101389.31;;;9.73;82.82
28921;BME280;16035;53.594;9.952;2024-02-21T06:06:59;101393.25;;;9.65;82.97
28921;BME280;16035;53.594;9.952;2024-02-21T06:08:59;101401.41;;;9.65;83.52
28921;BME280;16035;53.594;9.952;2024-02-21T06:11:00;101397.72;;;9.71;83.67
28921;BME280;16035;53.594;9.952;2024-02-21T06:13:00;101402.56;;;9.69;83.45
28921;BME280;16035;53.594;9.952;2024-02-21T06:15:00;101406.00;;;9.65;83.85
28921;BME280;16035;53.594;9.952;2024-02-21T06:17:01;101405.41;;;9.62;83.52
28921;BME280;16035;53.594;9.952;2024-02-21T06:19:01;101408.59;;;9.59;83.71
28921;BME280;16035;53.594;9.952;2024-02-21T06:21:01;101403.66;;;9.56;83.92
28921;BME280;16035;53.594;9.952;2024-02-21T06:23:02;101402.13;;;9.60;83.62
28921;BME280;16035;53.594;9.952;2024-02-21T06:25:02;101400.91;;;9.68;84.01
28921;BME280;16035;53.594;9.952;2024-02-21T06:27:06;101408.81;;;9.70;83.82
28921;BME280;16035;53.594;9.952;2024-02-21T06:29:06;101399.97;;;9.74;83.98
28921;BME280;16035;53.594;9.952;2024-02-21T06:31:07;101407.59;;;9.77;83.40
28921;BME280;16035;53.594;9.952;2024-02-21T06:33:07;101406.88;;;9.82;83.76
28921;BME280;16035;53.594;9.952;2024-02-21T06:35:08;101401.25;;;9.83;83.61
28921;BME280;16035;53.594;9.952;2024-02-21T06:37:08;101407.84;;;9.87;83.79
28921;BME280;16035;53.594;9.952;2024-02-21T06:39:08;101410.78;;;9.86;83.40
28921;BME280;16035;53.594;9.952;2024-02-21T06:41:16;101402.44;;;9.76;83.93
28921;BME280;16035;53.594;9.952;2024-02-21T06:43:18;101405.50;;;9.79;84.38
28921;BME280;16035;53.594;9.952;2024-02-21T06:45:19;101400.41;;;9.83;83.34
28921;BME280;16035;53.594;9.952;2024-02-21T06:47:19;101399.81;;;9.81;83.98
28921;BME280;16035;53.594;9.952;2024-02-21T06:49:20;101399.81;;;9.81;84.06
28921;BME280;16035;53.594;9.952;2024-02-21T06:51:20;101406.41;;;9.85;83.62
28921;BME280;16035;53.594;9.952;2024-02-21T06:53:20;101399.00;;;9.80;83.84
28921;BME280;16035;53.594;9.952;2024-02-21T06:55:21;101402.44;;;9.76;84.15
28921;BME280;16035;53.594;9.952;2024-02-21T06:57:21;101401.34;;;9.77;84.29
28921;BME280;16035;53.594;9.952;2024-02-21T06:59:21;101399.72;;;9.76;84.03
28921;BME280;16035;53.594;9.952;2024-02-21T07:01:22;101401.13;;;9.78;84.07
28921;BME280;16035;53.594;9.952;2024-02-21T07:03:22;101405.16;;;9.76;84.52
28921;BME280;16035;53.594;9.952;2024-02-21T07:05:24;101395.94;;;9.77;84.17
28921;BME280;16035;53.594;9.952;2024-02-21T07:07:24;101399.72;;;9.76;83.81
28921;BME280;16035;53.594;9.952;2024-02-21T07:09:25;101395.47;;;9.80;84.14
28921;BME280;16035;53.594;9.952;2024-02-21T07:11:25;101396.63;;;9.84;83.85
28921;BME280;16035;53.594;9.952;2024-02-21T07:13:25;101390.13;;;9.85;84.09
28921;BME280;16035;53.594;9.952;2024-02-21T07:15:26;101395.09;;;9.88;83.75
28921;BME280;16035;53.594;9.952;2024-02-21T07:17:27;101387.41;;;9.85;84.23
28921;BME280;16035;53.594;9.952;2024-02-21T07:19:27;101388.50;;;9.84;83.97
28921;BME280;16035;53.594;9.952;2024-02-21T07:21:27;101392.75;;;9.80;84.37
28921;BME280;16035;53.594;9.952;2024-02-21T07:23:28;101397.59;;;9.78;84.12
28921;BME280;16035;53.594;9.952;2024-02-21T07:25:28;101405.84;;;9.83;84.41
28921;BME280;16035;53.594;9.952;2024-02-21T07:27:28;101401.13;;;9.78;84.65
28921;BME280;16035;53.594;9.952;2024-02-21T07:29:31;101403.59;;;9.80;84.76
28921;BME280;16035;53.594;9.952;2024-02-21T07:31:31;101406.41;;;9.85;84.76
28921;BME280;16035;53.594;9.952;2024-02-21T07:33:38;101408.19;;;9.91;84.13
28921;BME280;16035;53.594;9.952;2024-02-21T07:35:38;101411.59;;;9.86;84.89
28921;BME280;16035;53.594;9.952;2024-02-21T07:37:40;101413.38;;;9.93;84.05
28921;BME280;16035;53.594;9.952;2024-02-21T07:39:41;101413.13;;;9.94;84.66
28921;BME280;16035;53.594;9.952;2024-02-21T07:41:41;101411.47;;;9.93;84.05
28921;BME280;16035;53.594;9.952;2024-02-21T07:43:44;101413.47;;;9.98;84.29
28921;BME280;16035;53.594;9.952;2024-02-21T07:45:44;101418.66;;;9.99;84.63
28921;BME280;16035;53.594;9.952;2024-02-21T07:47:44;101417.38;;;9.90;83.87
28921;BME280;16035;53.594;9.952;2024-02-21T07:49:47;101414.22;;;9.81;84.74
28921;BME280;16035;53.594;9.952;2024-02-21T07:51:52;101414.66;;;9.90;84.79
28921;BME280;16035;53.594;9.952;2024-02-21T07:53:53;101409.69;;;9.99;84.69
28921;BME280;16035;53.594;9.952;2024-02-21T07:55:53;101412.28;;;10.05;84.71
28921;BME280;16035;53.594;9.952;2024-02-21T07:57:53;101424.78;;;10.06;84.73
28921;BME280;16035;53.594;9.952;2024-02-21T07:59:54;101424.06;;;10.11;84.28
28921;BME280;16035;53.594;9.952;2024-02-21T08:01:57;101422.78;;;10.02;83.97
28921;BME280;16035;53.594;9.952;2024-02-21T08:03:58;101416.03;;;10.04;83.98
28921;BME280;16035;53.594;9.952;2024-02-21T08:05:59;101418.38;;;10.12;83.98
28921;BME280;16035;53.594;9.952;2024-02-21T08:07:59;101417.66;;;10.17;83.62
28921;BME280;16035;53.594;9.952;2024-02-21T08:09:59;101412.13;;;10.12;83.87
28921;BME280;16035;53.594;9.952;2024-02-21T08:12:00;101411.78;;;10.08;83.75
28921;BME280;16035;53.594;9.952;2024-02-21T08:14:00;101417.72;;;10.05;83.76
28921;BME280;16035;53.594;9.952;2024-02-21T08:16:01;101418.88;;;10.09;84.65
28921;BME280;16035;53.594;9.952;2024-02-21T08:18:01;101410.59;;;10.04;83.96
28921;BME280;16035;53.594;9.952;2024-02-21T08:20:04;101413.44;;;10.09;84.11
28921;BME280;16035;53.594;9.952;2024-02-21T08:22:05;101407.03;;;10.16;84.00
28921;BME280;16035;53.594;9.952;2024-02-21T08:24:07;101405.00;;;10.23;83.77
28921;BME280;16035;53.594;9.952;2024-02-21T08:26:07;101404.56;;;10.14;83.97
28921;BME280;16035;53.594;9.952;2024-02-21T08:28:07;101396.00;;;10.22;84.04
28921;BME280;16035;53.594;9.952;2024-02-21T08:30:08;101395.34;;;10.27;84.05
28921;BME280;16035;53.594;9.952;2024-02-21T08:32:09;101397.09;;;10.33;83.45
28921;BME280;16035;53.594;9.952;2024-02-21T08:34:09;101394.03;;;10.29;83.50
28921;BME280;16035;53.594;9.952;2024-02-21T08:36:17;101396.88;;;10.23;83.28
28921;BME280;16035;53.594;9.952;2024-02-21T08:38:17;101388.72;;;10.23;83.65
28921;BME280;16035;53.594;9.952;2024-02-21T08:40:18;101383.50;;;10.21;83.86
28921;BME280;16035;53.594;9.952;2024-02-21T08:42:21;101384.22;;;10.28;84.14
28921;BME280;16035;53.594;9.952;2024-02-21T08:44:25;101378.06;;;10.33;83.99
28921;BME280;16035;53.594;9.952;2024-02-21T08:46:28;101381.59;;;10.33;83.47
28921;BME280;16035;53.594;9.952;2024-02-21T08:48:28;101380.44;;;10.29;83.85
28921;BME280;16035;53.594;9.952;2024-02-21T08:50:28;101376.66;;;10.30;84.15
28921;BME280;16035;53.594;9.952;2024-02-21T08:52:29;101387.38;;;10.37;83.87
28921;BME280;16035;53.594;9.952;2024-02-21T08:54:29;101385.75;;;10.36;84.07
28921;BME280;16035;53.594;9.952;2024-02-21T08:56:30;101389.38;;;10.42;84.12
28921;BME280;16035;53.594;9.952;2024-02-21T08:58:31;101394.94;;;10.35;83.94
28921;BME280;16035;53.594;9.952;2024-02-21T09:00:31;101391.25;;;10.41;83.69
28921;BME280;16035;53.594;9.952;2024-02-21T09:02:32;101384.28;;;10.45;83.78
28921;BME280;16035;53.594;9.952;2024-02-21T09:04:32;101386.72;;;10.47;83.52
28921;BME280;16035;53.594;9.952;2024-02-21T09:06:33;101381.38;;;10.52;83.84
28921;BME280;16035;53.594;9.952;2024-02-21T09:08:36;101376.63;;;10.59;84.23
28921;BME280;16035;53.594;9.952;2024-02-21T09:10:36;101382.16;;;10.64;83.44
28921;BME280;16035;53.594;9.952;2024-02-21T09:12:42;101376.72;;;10.64;83.58
28921;BME280;16035;53.594;9.952;2024-02-21T09:14:44;101378.75;;;10.57;83.46
28921;BME280;16035;53.594;9.952;2024-02-21T09:16:45;101377.25;;;10.32;83.10
28921;BME280;16035;53.594;9.952;2024-02-21T09:18:45;101378.25;;;10.43;84.15
28921;BME280;16035;53.594;9.952;2024-02-21T09:20:46;101383.03;;;10.36;83.94
28921;BME280;16035;53.594;9.952;2024-02-21T09:22:47;101377.41;;;10.43;83.97
28921;BME280;16035;53.594;9.952;2024-02-21T09:24:48;101378.63;;;10.35;83.12
28921;BME280;16035;53.594;9.952;2024-02-21T09:26:48;101373.44;;;10.33;83.39
28921;BME280;16035;53.594;9.952;2024-02-21T09:28:49;101366.13;;;10.22;83.92
28921;BME280;16035;53.594;9.952;2024-02-21T09:30:50;101363.06;;;10.30;84.06
28921;BME280;16035;53.594;9.952;2024-02-21T09:32:50;101368.03;;;10.33;83.20
28921;BME280;16035;53.594;9.952;2024-02-21T09:34:50;101366.81;;;10.41;83.94
28921;BME280;16035;53.594;9.952;2024-02-21T09:36:52;101359.56;;;10.47;83.68
28921;BME280;16035;53.594;9.952;2024-02-21T09:38:52;101358.25;;;10.49;83.27
28921;BME280;16035;53.594;9.952;2024-02-21T09:43:09;101361.13;;;10.43;83.48
28921;BME280;16035;53.594;9.952;2024-02-21T09:45:22;101351.47;;;10.35;83.54
28921;BME280;16035;53.594;9.952;2024-02-21T09:47:26;101352.97;;;10.43;83.85
28921;BME280;16035;53.594;9.952;2024-02-21T09:49:33;101347.78;;;10.41;83.55
28921;BME280;16035;53.594;9.952;2024-02-21T09:51:34;101347.53;;;10.43;83.80
28921;BME280;16035;53.594;9.952;2024-02-21T09:53:37;101342.56;;;10.40;83.59
28921;BME280;16035;53.594;9.952;2024-02-21T09:55:38;101339.63;;;10.41;83.70
28921;BME280;16035;53.594;9.952;2024-02-21T09:57:41;101340.47;;;10.42;83.99
28921;BME280;16035;53.594;9.952;2024-02-21T09:59:41;101344.38;;;10.34;83.74
28921;BME280;16035;53.594;9.952;2024-02-21T10:01:45;101353.03;;;10.31;83.66
28921;BME280;16035;53.594;9.952;2024-02-21T10:03:47;101341.94;;;10.32;84.00
28921;BME280;16035;53.594;9.952;2024-02-21T10:05:48;101339.34;;;10.26;84.30
28921;BME280;16035;53.594;9.952;2024-02-21T10:07:51;101345.84;;;10.25;83.67
28921;BME280;16035;53.594;9.952;2024-02-21T10:10:04;101335.22;;;10.23;84.49
28921;BME280;16035;53.594;9.952;2024-02-21T10:12:09;101336.16;;;10.29;84.17
28921;BME280;16035;53.594;9.952;2024-02-21T10:14:10;101336.97;;;10.29;84.28
28921;BME280;16035;53.594;9.952;2024-02-21T10:16:10;101338.53;;;10.25;84.02
28921;BME280;16035;53.594;9.952;2024-02-21T10:18:11;101335.81;;;10.25;84.20
28921;BME280;16035;53.594;9.952;2024-02-21T10:20:12;101334.16;;;10.24;83.93
28921;BME280;16035;53.594;9.952;2024-02-21T10:22:12;101336.63;;;10.26;83.88
28921;BME280;16035;53.594;9.952;2024-02-21T10:24:26;101338.88;;;10.29;84.34
28921;BME280;16035;53.594;9.952;2024-02-21T10:26:26;101340.28;;;10.31;83.83
28921;BME280;16035;53.594;9.952;2024-02-21T10:28:27;101336.50;;;10.32;84.20
28921;BME280;16035;53.594;9.952;2024-02-21T10:30:27;101331.28;;;10.31;84.08
28921;BME280;16035;53.594;9.952;2024-02-21T10:32:27;101321.00;;;10.33;84.14
28921;BME280;16035;53.594;9.952;2024-02-21T10:34:28;101326.28;;;10.40;84.24
28921;BME280;16035;53.594;9.952;2024-02-21T10:36:29;101329.50;;;10.36;84.12
28921;BME280;16035;53.594;9.952;2024-02-21T10:38:29;101321.00;;;10.33;83.66
28921;BME280;16035;53.594;9.952;2024-02-21T10:40:30;101325.22;;;10.41;84.16
28921;BME280;16035;53.594;9.952;2024-02-21T10:42:37;101316.56;;;10.44;83.70